sensor_id;sensor_type;location;lat;lon;timestamp;P1;durP1;ratioP1;P2;durP2;ratioP2
61435;SDS011;47304;47.456;19.160;2023-03-21T00:00:40;12.40;;;7.00;;
61435;SDS011;47304;47.456;19.160;2023-03-21T00:03:06;13.20;;;6.70;;
61435;SDS011;47304;47.456;19.160;2023-03-21T00:05:33;13.20;;;7.00;;
61435;SDS011;47304;47.456;19.160;2023-03-21T00:08:00;13.30;;;7.30;;
61435;SDS011;47304;47.456;19.160;2023-03-21T00:10:28;10.80;;;7.10;;
61435;SDS011;47304;47.456;19.160;2023-03-21T00:13:05;11.50;;;6.80;;
61435;SDS011;47304;47.456;19.160;2023-03-21T00:15:32;13.90;;;8.40;;
61435;SDS011;47304;47.456;19.160;2023-03-21T00:18:13;13.50;;;7.10;;
61435;SDS011;47304;47.456;19.160;2023-03-21T00:20:40;14.10;;;8.70;;
61435;SDS011;47304;47.456;19.160;2023-03-21T00:23:06;13.30;;;8.00;;
61435;SDS011;47304;47.456;19.160;2023-03-21T00:25:33;12.10;;;7.80;;
61435;SDS011;47304;47.456;19.160;2023-03-21T00:28:00;11.90;;;7.50;;
61435;SDS011;47304;47.456;19.160;2023-03-21T00:30:33;12.70;;;7.90;;
61435;SDS011;47304;47.456;19.160;2023-03-21T00:33:00;12.10;;;7.30;;
61435;SDS011;47304;47.456;19.160;2023-03-21T00:35:45;12.90;;;7.50;;
61435;SDS011;47304;47.456;19.160;2023-03-21T00:38:30;15.90;;;9.30;;
61435;SDS011;47304;47.456;19.160;2023-03-21T00:40:57;18.40;;;10.00;;
61435;SDS011;47304;47.456;19.160;2023-03-21T00:43:32;13.20;;;8.30;;
61435;SDS011;47304;47.456;19.160;2023-03-21T00:46:00;13.50;;;8.10;;
61435;SDS011;47304;47.456;19.160;2023-03-21T00:48:26;14.60;;;8.50;;
61435;SDS011;47304;47.456;19.160;2023-03-21T00:50:54;13.10;;;7.90;;
61435;SDS011;47304;47.456;19.160;2023-03-21T00:53:22;13.00;;;8.10;;
61435;SDS011;47304;47.456;19.160;2023-03-21T00:55:49;11.80;;;7.20;;
61435;SDS011;47304;47.456;19.160;2023-03-21T00:58:17;13.20;;;8.20;;
61435;SDS011;47304;47.456;19.160;2023-03-21T01:00:44;11.80;;;7.50;;
61435;SDS011;47304;47.456;19.160;2023-03-21T01:03:12;12.20;;;7.40;;
61435;SDS011;47304;47.456;19.160;2023-03-21T01:05:50;12.80;;;7.50;;
61435;SDS011;47304;47.456;19.160;2023-03-21T01:08:18;13.70;;;7.90;;
61435;SDS011;47304;47.456;19.160;2023-03-21T01:10:54;12.90;;;7.40;;
61435;SDS011;47304;47.456;19.160;2023-03-21T01:13:22;12.20;;;7.40;;
61435;SDS011;47304;47.456;19.160;2023-03-21T01:15:51;13.20;;;8.20;;
61435;SDS011;47304;47.456;19.160;2023-03-21T01:18:22;11.50;;;7.10;;
61435;SDS011;47304;47.456;19.160;2023-03-21T01:20:51;12.60;;;7.90;;
61435;SDS011;47304;47.456;19.160;2023-03-21T01:23:18;14.80;;;8.00;;
61435;SDS011;47304;47.456;19.160;2023-03-21T01:25:46;12.40;;;7.30;;
61435;SDS011;47304;47.456;19.160;2023-03-21T01:28:13;13.40;;;8.20;;
61435;SDS011;47304;47.456;19.160;2023-03-21T01:30:44;14.20;;;8.90;;
61435;SDS011;47304;47.456;19.160;2023-03-21T01:33:14;12.90;;;8.50;;
61435;SDS011;47304;47.456;19.160;2023-03-21T01:35:42;14.70;;;8.50;;
61435;SDS011;47304;47.456;19.160;2023-03-21T01:38:18;12.60;;;7.70;;
61435;SDS011;47304;47.456;19.160;2023-03-21T01:40:45;14.30;;;8.50;;
61435;SDS011;47304;47.456;19.160;2023-03-21T01:43:21;14.10;;;8.20;;
61435;SDS011;47304;47.456;19.160;2023-03-21T01:48:52;14.00;;;8.80;;
61435;SDS011;47304;47.456;19.160;2023-03-21T01:51:22;12.50;;;7.70;;
61435;SDS011;47304;47.456;19.160;2023-03-21T01:53:52;12.70;;;7.40;;
61435;SDS011;47304;47.456;19.160;2023-03-21T01:56:22;13.80;;;8.20;;
61435;SDS011;47304;47.456;19.160;2023-03-21T01:58:50;14.10;;;8.00;;
61435;SDS011;47304;47.456;19.160;2023-03-21T02:01:20;12.40;;;7.80;;
61435;SDS011;47304;47.456;19.160;2023-03-21T02:03:47;13.70;;;7.90;;
61435;SDS011;47304;47.456;19.160;2023-03-21T02:06:24;12.90;;;8.00;;
61435;SDS011;47304;47.456;19.160;2023-03-21T02:08:59;15.70;;;7.90;;
61435;SDS011;47304;47.456;19.160;2023-03-21T02:11:30;15.40;;;8.80;;
61435;SDS011;47304;47.456;19.160;2023-03-21T02:13:57;14.10;;;8.80;;
61435;SDS011;47304;47.456;19.160;2023-03-21T02:28:45;11.40;;;6.40;;
61435;SDS011;47304;47.456;19.160;2023-03-21T02:31:40;14.10;;;7.80;;
61435;SDS011;47304;47.456;19.160;2023-03-21T02:45:30;12.80;;;7.70;;
61435;SDS011;47304;47.456;19.160;2023-03-21T02:48:11;12.30;;;7.70;;
61435;SDS011;47304;47.456;19.160;2023-03-21T02:50:56;12.50;;;7.20;;
61435;SDS011;47304;47.456;19.160;2023-03-21T02:53:27;14.60;;;7.80;;
61435;SDS011;47304;47.456;19.160;2023-03-21T02:55:59;11.70;;;7.60;;
61435;SDS011;47304;47.456;19.160;2023-03-21T02:58:28;11.50;;;6.90;;
61435;SDS011;47304;47.456;19.160;2023-03-21T03:00:57;12.60;;;7.10;;
61435;SDS011;47304;47.456;19.160;2023-03-21T03:03:24;11.20;;;6.80;;
61435;SDS011;47304;47.456;19.160;2023-03-21T03:06:00;11.00;;;6.80;;
61435;SDS011;47304;47.456;19.160;2023-03-21T03:11:33;11.00;;;7.10;;
61435;SDS011;47304;47.456;19.160;2023-03-21T03:17:26;9.90;;;5.10;;
61435;SDS011;47304;47.456;19.160;2023-03-21T03:22:47;11.20;;;6.40;;
61435;SDS011;47304;47.456;19.160;2023-03-21T03:25:23;11.90;;;7.00;;
61435;SDS011;47304;47.456;19.160;2023-03-21T03:28:08;12.30;;;6.70;;
61435;SDS011;47304;47.456;19.160;2023-03-21T03:30:36;10.10;;;6.10;;
61435;SDS011;47304;47.456;19.160;2023-03-21T03:33:24;10.10;;;5.40;;
61435;SDS011;47304;47.456;19.160;2023-03-21T03:35:52;10.90;;;6.30;;
61435;SDS011;47304;47.456;19.160;2023-03-21T03:38:31;11.80;;;6.20;;
61435;SDS011;47304;47.456;19.160;2023-03-21T03:41:03;9.70;;;5.20;;
61435;SDS011;47304;47.456;19.160;2023-03-21T03:43:38;11.40;;;5.60;;
61435;SDS011;47304;47.456;19.160;2023-03-21T03:46:13;9.60;;;5.60;;
61435;SDS011;47304;47.456;19.160;2023-03-21T03:48:54;11.70;;;5.80;;
61435;SDS011;47304;47.456;19.160;2023-03-21T03:51:31;12.40;;;6.20;;
61435;SDS011;47304;47.456;19.160;2023-03-21T03:54:16;10.50;;;5.90;;
61435;SDS011;47304;47.456;19.160;2023-03-21T03:56:47;11.10;;;6.40;;
61435;SDS011;47304;47.456;19.160;2023-03-21T03:59:15;11.30;;;5.80;;
61435;SDS011;47304;47.456;19.160;2023-03-21T04:01:41;12.10;;;6.50;;
61435;SDS011;47304;47.456;19.160;2023-03-21T04:04:08;9.00;;;5.50;;
61435;SDS011;47304;47.456;19.160;2023-03-21T04:06:38;11.40;;;6.10;;
61435;SDS011;47304;47.456;19.160;2023-03-21T04:09:05;10.00;;;5.80;;
61435;SDS011;47304;47.456;19.160;2023-03-21T04:11:45;9.90;;;6.10;;
61435;SDS011;47304;47.456;19.160;2023-03-21T04:14:12;10.60;;;5.90;;
61435;SDS011;47304;47.456;19.160;2023-03-21T04:16:39;9.00;;;5.30;;
61435;SDS011;47304;47.456;19.160;2023-03-21T04:19:05;8.70;;;5.10;;
61435;SDS011;47304;47.456;19.160;2023-03-21T04:21:32;9.70;;;5.50;;
61435;SDS011;47304;47.456;19.160;2023-03-21T04:23:59;9.20;;;5.30;;
61435;SDS011;47304;47.456;19.160;2023-03-21T04:26:26;9.70;;;5.10;;
61435;SDS011;47304;47.456;19.160;2023-03-21T04:28:52;10.80;;;5.40;;
61435;SDS011;47304;47.456;19.160;2023-03-21T04:31:19;8.80;;;4.70;;
61435;SDS011;47304;47.456;19.160;2023-03-21T04:33:51;9.20;;;5.50;;
61435;SDS011;47304;47.456;19.160;2023-03-21T04:36:18;9.70;;;5.70;;
61435;SDS011;47304;47.456;19.160;2023-03-21T04:38:44;9.60;;;5.60;;
61435;SDS011;47304;47.456;19.160;2023-03-21T04:41:11;9.30;;;5.10;;
61435;SDS011;47304;47.456;19.160;2023-03-21T04:43:37;10.50;;;5.80;;
61435;SDS011;47304;47.456;19.160;2023-03-21T04:46:04;10.00;;;5.60;;
61435;SDS011;47304;47.456;19.160;2023-03-21T04:48:31;10.30;;;5.90;;
61435;SDS011;47304;47.456;19.160;2023-03-21T04:50:57;9.20;;;5.40;;
61435;SDS011;47304;47.456;19.160;2023-03-21T04:53:24;9.90;;;5.40;;
61435;SDS011;47304;47.456;19.160;2023-03-21T04:55:50;10.70;;;6.30;;
61435;SDS011;47304;47.456;19.160;2023-03-21T04:58:20;11.00;;;5.40;;
61435;SDS011;47304;47.456;19.160;2023-03-21T05:00:47;11.00;;;6.10;;
61435;SDS011;47304;47.456;19.160;2023-03-21T05:03:13;11.10;;;7.20;;
61435;SDS011;47304;47.456;19.160;2023-03-21T05:05:40;12.30;;;6.30;;
61435;SDS011;47304;47.456;19.160;2023-03-21T05:08:06;11.00;;;5.80;;
61435;SDS011;47304;47.456;19.160;2023-03-21T05:10:33;11.80;;;6.40;;
61435;SDS011;47304;47.456;19.160;2023-03-21T05:13:00;12.60;;;6.20;;
61435;SDS011;47304;47.456;19.160;2023-03-21T05:15:26;8.90;;;5.10;;
61435;SDS011;47304;47.456;19.160;2023-03-21T05:17:53;9.30;;;5.30;;
61435;SDS011;47304;47.456;19.160;2023-03-21T05:20:20;9.90;;;4.50;;
61435;SDS011;47304;47.456;19.160;2023-03-21T05:22:47;10.50;;;5.90;;
61435;SDS011;47304;47.456;19.160;2023-03-21T05:25:13;9.90;;;5.40;;
61435;SDS011;47304;47.456;19.160;2023-03-21T05:27:40;8.80;;;5.50;;
61435;SDS011;47304;47.456;19.160;2023-03-21T05:30:09;14.00;;;6.30;;
61435;SDS011;47304;47.456;19.160;2023-03-21T05:32:43;12.00;;;6.10;;
61435;SDS011;47304;47.456;19.160;2023-03-21T05:35:09;10.80;;;5.10;;
61435;SDS011;47304;47.456;19.160;2023-03-21T05:37:37;10.00;;;5.90;;
61435;SDS011;47304;47.456;19.160;2023-03-21T05:40:07;9.80;;;5.70;;
61435;SDS011;47304;47.456;19.160;2023-03-21T05:42:34;10.60;;;6.40;;
61435;SDS011;47304;47.456;19.160;2023-03-21T05:45:00;11.40;;;6.60;;
61435;SDS011;47304;47.456;19.160;2023-03-21T05:47:27;12.20;;;6.90;;
61435;SDS011;47304;47.456;19.160;2023-03-21T05:49:53;17.10;;;7.50;;
61435;SDS011;47304;47.456;19.160;2023-03-21T05:52:20;12.60;;;7.10;;
61435;SDS011;47304;47.456;19.160;2023-03-21T05:54:48;14.80;;;7.90;;
61435;SDS011;47304;47.456;19.160;2023-03-21T05:57:15;8.70;;;5.90;;
61435;SDS011;47304;47.456;19.160;2023-03-21T05:59:41;12.70;;;6.60;;
61435;SDS011;47304;47.456;19.160;2023-03-21T06:02:08;10.40;;;6.20;;
61435;SDS011;47304;47.456;19.160;2023-03-21T06:04:34;11.10;;;6.30;;
61435;SDS011;47304;47.456;19.160;2023-03-21T06:07:01;10.10;;;5.80;;
61435;SDS011;47304;47.456;19.160;2023-03-21T06:09:28;10.60;;;5.60;;
61435;SDS011;47304;47.456;19.160;2023-03-21T06:11:55;9.60;;;5.70;;
61435;SDS011;47304;47.456;19.160;2023-03-21T06:14:23;13.00;;;6.60;;
61435;SDS011;47304;47.456;19.160;2023-03-21T06:16:50;9.70;;;5.90;;
61435;SDS011;47304;47.456;19.160;2023-03-21T06:19:16;13.30;;;6.70;;
61435;SDS011;47304;47.456;19.160;2023-03-21T06:21:43;12.80;;;6.80;;
61435;SDS011;47304;47.456;19.160;2023-03-21T06:24:10;12.40;;;6.60;;
61435;SDS011;47304;47.456;19.160;2023-03-21T06:26:37;11.80;;;6.50;;
61435;SDS011;47304;47.456;19.160;2023-03-21T06:29:03;15.80;;;7.50;;
61435;SDS011;47304;47.456;19.160;2023-03-21T06:31:30;12.20;;;6.50;;
61435;SDS011;47304;47.456;19.160;2023-03-21T06:33:57;10.40;;;6.60;;
61435;SDS011;47304;47.456;19.160;2023-03-21T06:36:23;9.90;;;6.20;;
61435;SDS011;47304;47.456;19.160;2023-03-21T06:38:50;11.60;;;7.10;;
61435;SDS011;47304;47.456;19.160;2023-03-21T06:41:16;11.60;;;6.80;;
61435;SDS011;47304;47.456;19.160;2023-03-21T06:43:43;12.20;;;6.60;;
61435;SDS011;47304;47.456;19.160;2023-03-21T06:46:10;10.70;;;7.00;;
61435;SDS011;47304;47.456;19.160;2023-03-21T06:48:37;10.70;;;6.40;;
61435;SDS011;47304;47.456;19.160;2023-03-21T06:51:04;14.00;;;6.20;;
61435;SDS011;47304;47.456;19.160;2023-03-21T06:53:30;12.30;;;6.90;;
61435;SDS011;47304;47.456;19.160;2023-03-21T06:55:57;11.20;;;6.50;;
61435;SDS011;47304;47.456;19.160;2023-03-21T06:58:24;11.40;;;6.70;;
61435;SDS011;47304;47.456;19.160;2023-03-21T07:00:50;9.50;;;6.10;;
61435;SDS011;47304;47.456;19.160;2023-03-21T07:03:17;11.30;;;6.80;;
61435;SDS011;47304;47.456;19.160;2023-03-21T07:05:43;11.70;;;6.90;;
61435;SDS011;47304;47.456;19.160;2023-03-21T07:08:10;10.80;;;6.80;;
61435;SDS011;47304;47.456;19.160;2023-03-21T07:10:37;12.50;;;6.90;;
61435;SDS011;47304;47.456;19.160;2023-03-21T07:13:05;10.50;;;6.10;;
61435;SDS011;47304;47.456;19.160;2023-03-21T07:15:32;10.30;;;6.40;;
61435;SDS011;47304;47.456;19.160;2023-03-21T07:17:59;11.30;;;6.70;;
61435;SDS011;47304;47.456;19.160;2023-03-21T07:20:25;10.10;;;6.00;;
61435;SDS011;47304;47.456;19.160;2023-03-21T07:22:52;11.80;;;6.70;;
61435;SDS011;47304;47.456;19.160;2023-03-21T07:25:18;11.70;;;6.40;;
61435;SDS011;47304;47.456;19.160;2023-03-21T07:27:45;9.50;;;5.60;;
61435;SDS011;47304;47.456;19.160;2023-03-21T07:30:12;10.40;;;6.10;;
61435;SDS011;47304;47.456;19.160;2023-03-21T07:32:39;9.70;;;5.60;;
61435;SDS011;47304;47.456;19.160;2023-03-21T07:35:06;10.10;;;4.90;;
61435;SDS011;47304;47.456;19.160;2023-03-21T07:37:36;9.90;;;5.70;;
61435;SDS011;47304;47.456;19.160;2023-03-21T07:40:03;10.20;;;5.50;;
61435;SDS011;47304;47.456;19.160;2023-03-21T07:42:30;7.90;;;4.50;;
61435;SDS011;47304;47.456;19.160;2023-03-21T07:45:02;9.50;;;5.40;;
61435;SDS011;47304;47.456;19.160;2023-03-21T07:47:30;9.60;;;4.80;;
61435;SDS011;47304;47.456;19.160;2023-03-21T07:49:57;8.40;;;4.40;;
61435;SDS011;47304;47.456;19.160;2023-03-21T07:52:24;9.70;;;5.60;;
61435;SDS011;47304;47.456;19.160;2023-03-21T07:54:51;9.90;;;5.60;;
61435;SDS011;47304;47.456;19.160;2023-03-21T07:57:17;11.00;;;5.90;;
61435;SDS011;47304;47.456;19.160;2023-03-21T07:59:44;11.10;;;5.40;;
61435;SDS011;47304;47.456;19.160;2023-03-21T08:02:13;10.70;;;5.60;;
61435;SDS011;47304;47.456;19.160;2023-03-21T08:04:41;10.10;;;5.00;;
61435;SDS011;47304;47.456;19.160;2023-03-21T08:07:07;10.20;;;5.40;;
61435;SDS011;47304;47.456;19.160;2023-03-21T08:09:35;8.20;;;4.70;;
61435;SDS011;47304;47.456;19.160;2023-03-21T08:12:03;9.00;;;4.80;;
61435;SDS011;47304;47.456;19.160;2023-03-21T08:14:31;9.40;;;4.80;;
61435;SDS011;47304;47.456;19.160;2023-03-21T08:16:58;8.60;;;4.80;;
61435;SDS011;47304;47.456;19.160;2023-03-21T08:19:25;9.20;;;4.00;;
61435;SDS011;47304;47.456;19.160;2023-03-21T08:21:52;8.50;;;4.90;;
61435;SDS011;47304;47.456;19.160;2023-03-21T08:24:18;8.80;;;4.70;;
61435;SDS011;47304;47.456;19.160;2023-03-21T08:26:45;9.10;;;4.30;;
61435;SDS011;47304;47.456;19.160;2023-03-21T08:29:12;8.60;;;4.70;;
61435;SDS011;47304;47.456;19.160;2023-03-21T08:31:39;8.40;;;4.40;;
61435;SDS011;47304;47.456;19.160;2023-03-21T08:34:06;7.70;;;4.30;;
61435;SDS011;47304;47.456;19.160;2023-03-21T08:36:34;7.80;;;4.50;;
61435;SDS011;47304;47.456;19.160;2023-03-21T08:39:02;6.40;;;3.30;;
61435;SDS011;47304;47.456;19.160;2023-03-21T08:41:33;9.30;;;4.60;;
61435;SDS011;47304;47.456;19.160;2023-03-21T08:44:02;7.80;;;3.90;;
61435;SDS011;47304;47.456;19.160;2023-03-21T08:46:30;7.50;;;3.80;;
61435;SDS011;47304;47.456;19.160;2023-03-21T08:48:57;9.40;;;4.50;;
61435;SDS011;47304;47.456;19.160;2023-03-21T08:51:23;6.80;;;3.70;;
61435;SDS011;47304;47.456;19.160;2023-03-21T08:53:50;7.60;;;4.00;;
61435;SDS011;47304;47.456;19.160;2023-03-21T08:56:17;8.70;;;4.30;;
61435;SDS011;47304;47.456;19.160;2023-03-21T08:58:43;7.10;;;3.10;;
61435;SDS011;47304;47.456;19.160;2023-03-21T09:01:10;9.60;;;3.10;;
61435;SDS011;47304;47.456;19.160;2023-03-21T09:03:37;7.50;;;3.40;;
61435;SDS011;47304;47.456;19.160;2023-03-21T09:06:03;6.90;;;2.90;;
61435;SDS011;47304;47.456;19.160;2023-03-21T09:08:32;8.40;;;3.30;;
61435;SDS011;47304;47.456;19.160;2023-03-21T09:10:58;7.40;;;3.10;;
61435;SDS011;47304;47.456;19.160;2023-03-21T09:13:25;8.90;;;3.20;;
61435;SDS011;47304;47.456;19.160;2023-03-21T09:15:51;5.20;;;2.60;;
61435;SDS011;47304;47.456;19.160;2023-03-21T09:18:20;10.60;;;3.10;;
61435;SDS011;47304;47.456;19.160;2023-03-21T09:20:46;7.40;;;3.50;;
61435;SDS011;47304;47.456;19.160;2023-03-21T09:23:13;6.90;;;3.40;;
61435;SDS011;47304;47.456;19.160;2023-03-21T09:25:40;7.50;;;3.10;;
61435;SDS011;47304;47.456;19.160;2023-03-21T09:28:09;8.60;;;3.40;;
61435;SDS011;47304;47.456;19.160;2023-03-21T09:30:36;6.80;;;3.40;;
61435;SDS011;47304;47.456;19.160;2023-03-21T09:33:03;6.90;;;3.50;;
61435;SDS011;47304;47.456;19.160;2023-03-21T09:35:31;7.30;;;3.30;;
61435;SDS011;47304;47.456;19.160;2023-03-21T09:37:58;8.80;;;3.10;;
61435;SDS011;47304;47.456;19.160;2023-03-21T09:43:40;5.40;;;2.50;;
61435;SDS011;47304;47.456;19.160;2023-03-21T09:49:03;5.80;;;2.80;;
61435;SDS011;47304;47.456;19.160;2023-03-21T09:51:34;5.30;;;2.80;;
61435;SDS011;47304;47.456;19.160;2023-03-21T09:54:11;5.50;;;2.40;;
61435;SDS011;47304;47.456;19.160;2023-03-21T09:56:43;6.90;;;3.20;;
61435;SDS011;47304;47.456;19.160;2023-03-21T09:59:17;6.70;;;2.90;;
61435;SDS011;47304;47.456;19.160;2023-03-21T10:01:47;6.70;;;2.90;;
61435;SDS011;47304;47.456;19.160;2023-03-21T10:04:14;6.50;;;3.00;;
61435;SDS011;47304;47.456;19.160;2023-03-21T10:06:41;5.10;;;2.40;;
61435;SDS011;47304;47.456;19.160;2023-03-21T10:09:31;5.00;;;2.70;;
61435;SDS011;47304;47.456;19.160;2023-03-21T10:12:04;6.40;;;2.40;;
61435;SDS011;47304;47.456;19.160;2023-03-21T10:14:41;5.40;;;2.60;;
61435;SDS011;47304;47.456;19.160;2023-03-21T10:20:33;5.60;;;2.60;;
61435;SDS011;47304;47.456;19.160;2023-03-21T10:23:03;6.10;;;2.90;;
61435;SDS011;47304;47.456;19.160;2023-03-21T10:25:36;4.80;;;2.60;;
61435;SDS011;47304;47.456;19.160;2023-03-21T10:28:17;5.50;;;2.70;;
61435;SDS011;47304;47.456;19.160;2023-03-21T10:30:54;4.60;;;2.30;;
61435;SDS011;47304;47.456;19.160;2023-03-21T10:33:28;5.20;;;2.40;;
61435;SDS011;47304;47.456;19.160;2023-03-21T10:36:00;5.70;;;2.40;;
61435;SDS011;47304;47.456;19.160;2023-03-21T10:38:30;5.50;;;2.50;;
61435;SDS011;47304;47.456;19.160;2023-03-21T10:40:57;7.40;;;2.40;;
61435;SDS011;47304;47.456;19.160;2023-03-21T10:45:51;7.20;;;2.70;;
61435;SDS011;47304;47.456;19.160;2023-03-21T10:48:20;3.70;;;2.30;;
61435;SDS011;47304;47.456;19.160;2023-03-21T10:50:48;4.80;;;2.50;;
61435;SDS011;47304;47.456;19.160;2023-03-21T10:53:28;4.30;;;2.40;;
61435;SDS011;47304;47.456;19.160;2023-03-21T10:55:58;3.90;;;2.10;;
61435;SDS011;47304;47.456;19.160;2023-03-21T10:58:27;5.30;;;2.40;;
61435;SDS011;47304;47.456;19.160;2023-03-21T11:00:56;5.00;;;2.50;;
61435;SDS011;47304;47.456;19.160;2023-03-21T11:03:37;5.40;;;2.60;;
61435;SDS011;47304;47.456;19.160;2023-03-21T11:08:48;3.30;;;2.10;;
61435;SDS011;47304;47.456;19.160;2023-03-21T11:11:41;12.50;;;3.10;;
61435;SDS011;47304;47.456;19.160;2023-03-21T11:14:25;3.60;;;2.20;;
61435;SDS011;47304;47.456;19.160;2023-03-21T11:17:06;5.70;;;2.80;;
61435;SDS011;47304;47.456;19.160;2023-03-21T11:19:51;4.50;;;2.20;;
61435;SDS011;47304;47.456;19.160;2023-03-21T11:22:28;5.20;;;2.40;;
61435;SDS011;47304;47.456;19.160;2023-03-21T11:25:03;5.00;;;2.40;;
61435;SDS011;47304;47.456;19.160;2023-03-21T11:27:33;5.50;;;2.60;;
61435;SDS011;47304;47.456;19.160;2023-03-21T11:30:01;4.20;;;2.30;;
61435;SDS011;47304;47.456;19.160;2023-03-21T11:32:31;5.10;;;2.70;;
61435;SDS011;47304;47.456;19.160;2023-03-21T11:35:00;5.60;;;2.50;;
61435;SDS011;47304;47.456;19.160;2023-03-21T11:37:31;6.10;;;2.80;;
61435;SDS011;47304;47.456;19.160;2023-03-21T11:42:42;5.50;;;2.50;;
61435;SDS011;47304;47.456;19.160;2023-03-21T11:45:12;5.90;;;3.00;;
61435;SDS011;47304;47.456;19.160;2023-03-21T11:47:40;7.20;;;3.10;;
61435;SDS011;47304;47.456;19.160;2023-03-21T11:50:18;6.30;;;3.10;;
61435;SDS011;47304;47.456;19.160;2023-03-21T11:56:01;6.00;;;3.00;;
61435;SDS011;47304;47.456;19.160;2023-03-21T12:06:21;6.60;;;3.20;;
61435;SDS011;47304;47.456;19.160;2023-03-21T12:08:58;9.00;;;3.90;;
61435;SDS011;47304;47.456;19.160;2023-03-21T12:11:34;8.50;;;3.10;;
61435;SDS011;47304;47.456;19.160;2023-03-21T12:14:26;7.10;;;2.90;;
61435;SDS011;47304;47.456;19.160;2023-03-21T12:25:25;5.80;;;2.60;;
61435;SDS011;47304;47.456;19.160;2023-03-21T12:30:50;9.30;;;3.00;;
61435;SDS011;47304;47.456;19.160;2023-03-21T12:38:34;6.70;;;3.00;;
61435;SDS011;47304;47.456;19.160;2023-03-21T12:44:07;6.20;;;2.80;;
61435;SDS011;47304;47.456;19.160;2023-03-21T12:46:43;5.20;;;2.60;;
61435;SDS011;47304;47.456;19.160;2023-03-21T12:49:17;5.90;;;2.60;;
61435;SDS011;47304;47.456;19.160;2023-03-21T12:51:50;5.50;;;2.80;;
61435;SDS011;47304;47.456;19.160;2023-03-21T12:54:49;5.10;;;2.70;;
61435;SDS011;47304;47.456;19.160;2023-03-21T12:57:28;5.40;;;2.50;;
61435;SDS011;47304;47.456;19.160;2023-03-21T13:00:05;7.40;;;3.20;;
61435;SDS011;47304;47.456;19.160;2023-03-21T13:05:55;7.30;;;3.40;;
61435;SDS011;47304;47.456;19.160;2023-03-21T13:11:22;9.70;;;3.00;;
61435;SDS011;47304;47.456;19.160;2023-03-21T13:16:47;6.80;;;2.70;;
61435;SDS011;47304;47.456;19.160;2023-03-21T13:22:14;6.10;;;2.70;;
61435;SDS011;47304;47.456;19.160;2023-03-21T13:27:54;6.50;;;2.50;;
61435;SDS011;47304;47.456;19.160;2023-03-21T13:30:27;8.50;;;2.80;;
61435;SDS011;47304;47.456;19.160;2023-03-21T13:33:06;5.90;;;2.70;;
61435;SDS011;47304;47.456;19.160;2023-03-21T13:35:37;6.10;;;2.60;;
61435;SDS011;47304;47.456;19.160;2023-03-21T13:40:55;5.20;;;2.00;;
61435;SDS011;47304;47.456;19.160;2023-03-21T13:43:30;5.90;;;2.20;;
61435;SDS011;47304;47.456;19.160;2023-03-21T13:46:04;6.10;;;2.40;;
61435;SDS011;47304;47.456;19.160;2023-03-21T13:48:40;5.40;;;2.30;;
61435;SDS011;47304;47.456;19.160;2023-03-21T13:59:10;4.90;;;2.30;;
61435;SDS011;47304;47.456;19.160;2023-03-21T14:01:39;6.00;;;2.30;;
61435;SDS011;47304;47.456;19.160;2023-03-21T14:06:37;5.60;;;2.40;;
61435;SDS011;47304;47.456;19.160;2023-03-21T14:09:07;4.60;;;2.40;;
61435;SDS011;47304;47.456;19.160;2023-03-21T14:11:34;11.20;;;7.00;;
61435;SDS011;47304;47.456;19.160;2023-03-21T14:14:03;6.80;;;3.50;;
61435;SDS011;47304;47.456;19.160;2023-03-21T14:16:32;5.70;;;2.50;;
61435;SDS011;47304;47.456;19.160;2023-03-21T14:19:00;6.00;;;2.50;;
61435;SDS011;47304;47.456;19.160;2023-03-21T14:21:30;5.20;;;2.40;;
61435;SDS011;47304;47.456;19.160;2023-03-21T14:26:49;5.40;;;2.50;;
61435;SDS011;47304;47.456;19.160;2023-03-21T14:29:25;7.10;;;2.50;;
61435;SDS011;47304;47.456;19.160;2023-03-21T14:31:57;6.70;;;2.40;;
61435;SDS011;47304;47.456;19.160;2023-03-21T14:34:26;5.60;;;2.60;;
61435;SDS011;47304;47.456;19.160;2023-03-21T14:36:54;7.00;;;2.20;;
61435;SDS011;47304;47.456;19.160;2023-03-21T14:39:28;4.40;;;2.10;;
61435;SDS011;47304;47.456;19.160;2023-03-21T14:42:01;6.60;;;2.30;;
61435;SDS011;47304;47.456;19.160;2023-03-21T14:47:17;35.50;;;20.00;;
61435;SDS011;47304;47.456;19.160;2023-03-21T14:49:46;10.10;;;4.20;;
61435;SDS011;47304;47.456;19.160;2023-03-21T14:52:25;6.90;;;3.10;;
61435;SDS011;47304;47.456;19.160;2023-03-21T14:55:04;6.50;;;2.30;;
61435;SDS011;47304;47.456;19.160;2023-03-21T14:57:40;5.10;;;2.20;;
61435;SDS011;47304;47.456;19.160;2023-03-21T15:00:08;4.70;;;2.20;;
61435;SDS011;47304;47.456;19.160;2023-03-21T15:02:48;7.00;;;2.60;;
61435;SDS011;47304;47.456;19.160;2023-03-21T15:05:35;5.60;;;2.70;;
61435;SDS011;47304;47.456;19.160;2023-03-21T15:08:08;8.80;;;3.50;;
61435;SDS011;47304;47.456;19.160;2023-03-21T15:10:52;8.70;;;3.40;;
61435;SDS011;47304;47.456;19.160;2023-03-21T15:16:18;8.60;;;3.30;;
61435;SDS011;47304;47.456;19.160;2023-03-21T15:18:46;5.40;;;2.50;;
61435;SDS011;47304;47.456;19.160;2023-03-21T15:21:37;6.50;;;2.60;;
61435;SDS011;47304;47.456;19.160;2023-03-21T15:27:02;8.70;;;2.80;;
61435;SDS011;47304;47.456;19.160;2023-03-21T15:29:31;7.00;;;3.40;;
61435;SDS011;47304;47.456;19.160;2023-03-21T15:32:04;5.90;;;2.60;;
61435;SDS011;47304;47.456;19.160;2023-03-21T15:34:35;6.50;;;2.50;;
61435;SDS011;47304;47.456;19.160;2023-03-21T15:37:06;6.20;;;2.60;;
61435;SDS011;47304;47.456;19.160;2023-03-21T15:39:39;7.70;;;2.60;;
61435;SDS011;47304;47.456;19.160;2023-03-21T15:42:29;6.60;;;2.80;;
61435;SDS011;47304;47.456;19.160;2023-03-21T15:45:00;6.20;;;2.80;;
61435;SDS011;47304;47.456;19.160;2023-03-21T15:47:37;7.50;;;3.40;;
61435;SDS011;47304;47.456;19.160;2023-03-21T15:53:23;7.50;;;3.50;;
61435;SDS011;47304;47.456;19.160;2023-03-21T15:55:51;7.50;;;3.20;;
61435;SDS011;47304;47.456;19.160;2023-03-21T15:58:21;6.70;;;3.10;;
61435;SDS011;47304;47.456;19.160;2023-03-21T16:00:54;6.90;;;3.50;;
61435;SDS011;47304;47.456;19.160;2023-03-21T16:03:27;7.80;;;3.20;;
61435;SDS011;47304;47.456;19.160;2023-03-21T16:06:16;7.50;;;3.60;;
61435;SDS011;47304;47.456;19.160;2023-03-21T16:08:49;7.10;;;3.30;;
61435;SDS011;47304;47.456;19.160;2023-03-21T16:13:47;9.00;;;3.50;;
61435;SDS011;47304;47.456;19.160;2023-03-21T16:16:25;6.80;;;3.10;;
61435;SDS011;47304;47.456;19.160;2023-03-21T16:18:54;7.60;;;3.20;;
61435;SDS011;47304;47.456;19.160;2023-03-21T16:21:24;7.00;;;3.20;;
61435;SDS011;47304;47.456;19.160;2023-03-21T16:23:55;5.30;;;2.60;;
61435;SDS011;47304;47.456;19.160;2023-03-21T16:26:23;6.20;;;2.70;;
61435;SDS011;47304;47.456;19.160;2023-03-21T16:28:55;6.50;;;3.30;;
61435;SDS011;47304;47.456;19.160;2023-03-21T16:31:23;8.50;;;3.00;;
61435;SDS011;47304;47.456;19.160;2023-03-21T16:33:52;6.90;;;3.20;;
61435;SDS011;47304;47.456;19.160;2023-03-21T16:38:57;7.30;;;3.40;;
61435;SDS011;47304;47.456;19.160;2023-03-21T16:41:25;7.70;;;3.70;;
61435;SDS011;47304;47.456;19.160;2023-03-21T16:43:52;10.30;;;3.60;;
61435;SDS011;47304;47.456;19.160;2023-03-21T16:46:23;7.50;;;3.50;;
61435;SDS011;47304;47.456;19.160;2023-03-21T16:48:53;7.70;;;4.00;;
61435;SDS011;47304;47.456;19.160;2023-03-21T16:51:22;8.20;;;3.90;;
61435;SDS011;47304;47.456;19.160;2023-03-21T16:53:51;7.70;;;3.70;;
61435;SDS011;47304;47.456;19.160;2023-03-21T16:56:23;8.30;;;3.90;;
61435;SDS011;47304;47.456;19.160;2023-03-21T16:59:09;9.20;;;3.80;;